sensor_id;sensor_type;location;lat;lon;timestamp;P1;durP1;ratioP1;P2;durP2;ratioP2
1613;SDS011;800;48.824;9.346;2022-08-19T00:01:51;12.90;;;11.70;;
1613;SDS011;800;48.824;9.346;2022-08-19T00:04:19;12.20;;;11.20;;
1613;SDS011;800;48.824;9.346;2022-08-19T00:06:47;13.60;;;12.30;;
1613;SDS011;800;48.824;9.346;2022-08-19T00:09:14;13.77;;;12.67;;
1613;SDS011;800;48.824;9.346;2022-08-19T00:11:41;13.70;;;12.60;;
1613;SDS011;800;48.824;9.346;2022-08-19T00:14:10;13.70;;;12.60;;
1613;SDS011;800;48.824;9.346;2022-08-19T00:16:40;12.50;;;11.50;;
1613;SDS011;800;48.824;9.346;2022-08-19T00:19:08;12.53;;;11.23;;
1613;SDS011;800;48.824;9.346;2022-08-19T00:21:34;13.23;;;12.20;;
1613;SDS011;800;48.824;9.346;2022-08-19T00:24:04;13.07;;;11.97;;
1613;SDS011;800;48.824;9.346;2022-08-19T00:26:33;13.97;;;12.67;;
1613;SDS011;800;48.824;9.346;2022-08-19T00:28:59;13.47;;;12.37;;
1613;SDS011;800;48.824;9.346;2022-08-19T00:31:26;14.00;;;12.70;;
1613;SDS011;800;48.824;9.346;2022-08-19T00:33:52;12.10;;;11.00;;
1613;SDS011;800;48.824;9.346;2022-08-19T00:36:19;13.20;;;12.10;;
1613;SDS011;800;48.824;9.346;2022-08-19T00:38:45;15.43;;;14.00;;
1613;SDS011;800;48.824;9.346;2022-08-19T00:41:14;13.90;;;12.73;;
1613;SDS011;800;48.824;9.346;2022-08-19T00:43:43;14.93;;;13.60;;
1613;SDS011;800;48.824;9.346;2022-08-19T00:46:08;14.07;;;12.77;;
1613;SDS011;800;48.824;9.346;2022-08-19T00:48:34;14.03;;;12.83;;
1613;SDS011;800;48.824;9.346;2022-08-19T00:51:01;14.97;;;13.57;;
1613;SDS011;800;48.824;9.346;2022-08-19T00:53:27;15.17;;;13.67;;
1613;SDS011;800;48.824;9.346;2022-08-19T00:55:54;12.90;;;11.90;;
1613;SDS011;800;48.824;9.346;2022-08-19T00:58:24;13.97;;;12.80;;
1613;SDS011;800;48.824;9.346;2022-08-19T01:00:52;14.67;;;13.30;;
1613;SDS011;800;48.824;9.346;2022-08-19T01:03:18;14.40;;;13.10;;
1613;SDS011;800;48.824;9.346;2022-08-19T01:05:45;16.03;;;14.53;;
1613;SDS011;800;48.824;9.346;2022-08-19T01:08:12;15.40;;;14.10;;
1613;SDS011;800;48.824;9.346;2022-08-19T01:10:41;14.17;;;12.97;;
1613;SDS011;800;48.824;9.346;2022-08-19T01:13:09;15.10;;;13.80;;
1613;SDS011;800;48.824;9.346;2022-08-19T01:15:40;14.20;;;13.00;;
1613;SDS011;800;48.824;9.346;2022-08-19T01:18:10;14.13;;;12.73;;
1613;SDS011;800;48.824;9.346;2022-08-19T01:20:39;16.00;;;14.50;;
1613;SDS011;800;48.824;9.346;2022-08-19T01:23:05;13.70;;;12.40;;
1613;SDS011;800;48.824;9.346;2022-08-19T01:25:32;14.10;;;12.67;;
1613;SDS011;800;48.824;9.346;2022-08-19T01:28:06;14.03;;;12.73;;
1613;SDS011;800;48.824;9.346;2022-08-19T01:30:33;13.53;;;12.33;;
1613;SDS011;800;48.824;9.346;2022-08-19T01:33:00;14.90;;;13.47;;
1613;SDS011;800;48.824;9.346;2022-08-19T01:35:27;14.40;;;13.20;;
1613;SDS011;800;48.824;9.346;2022-08-19T01:37:59;14.10;;;12.87;;
1613;SDS011;800;48.824;9.346;2022-08-19T01:40:31;14.43;;;13.13;;
1613;SDS011;800;48.824;9.346;2022-08-19T01:42:58;14.30;;;13.10;;
1613;SDS011;800;48.824;9.346;2022-08-19T01:45:25;15.33;;;14.03;;
1613;SDS011;800;48.824;9.346;2022-08-19T01:47:53;14.83;;;13.33;;
1613;SDS011;800;48.824;9.346;2022-08-19T01:50:19;15.23;;;13.63;;
1613;SDS011;800;48.824;9.346;2022-08-19T01:52:46;14.27;;;12.90;;
1613;SDS011;800;48.824;9.346;2022-08-19T01:55:14;15.07;;;13.67;;
1613;SDS011;800;48.824;9.346;2022-08-19T01:57:43;13.10;;;12.00;;
1613;SDS011;800;48.824;9.346;2022-08-19T02:00:12;14.40;;;13.13;;
1613;SDS011;800;48.824;9.346;2022-08-19T02:02:40;14.30;;;13.00;;
1613;SDS011;800;48.824;9.346;2022-08-19T02:05:06;15.57;;;14.17;;
1613;SDS011;800;48.824;9.346;2022-08-19T02:07:33;15.20;;;13.83;;
1613;SDS011;800;48.824;9.346;2022-08-19T02:10:01;14.00;;;12.70;;
1613;SDS011;800;48.824;9.346;2022-08-19T02:12:34;15.80;;;14.23;;
1613;SDS011;800;48.824;9.346;2022-08-19T02:15:00;16.00;;;14.47;;
1613;SDS011;800;48.824;9.346;2022-08-19T02:17:27;15.70;;;14.20;;
1613;SDS011;800;48.824;9.346;2022-08-19T02:19:53;15.43;;;13.87;;
1613;SDS011;800;48.824;9.346;2022-08-19T02:22:20;15.33;;;13.83;;
1613;SDS011;800;48.824;9.346;2022-08-19T02:24:46;15.00;;;13.60;;
1613;SDS011;800;48.824;9.346;2022-08-19T02:27:13;15.20;;;13.80;;
1613;SDS011;800;48.824;9.346;2022-08-19T02:29:39;14.03;;;12.83;;
1613;SDS011;800;48.824;9.346;2022-08-19T02:32:06;15.33;;;13.93;;
1613;SDS011;800;48.824;9.346;2022-08-19T02:34:32;14.90;;;13.50;;
1613;SDS011;800;48.824;9.346;2022-08-19T02:36:58;14.97;;;13.67;;
1613;SDS011;800;48.824;9.346;2022-08-19T02:39:24;14.73;;;13.10;;
1613;SDS011;800;48.824;9.346;2022-08-19T02:41:49;14.13;;;12.87;;
1613;SDS011;800;48.824;9.346;2022-08-19T02:44:17;17.20;;;14.00;;
1613;SDS011;800;48.824;9.346;2022-08-19T02:46:44;18.87;;;12.90;;
1613;SDS011;800;48.824;9.346;2022-08-19T02:49:11;15.73;;;13.97;;
1613;SDS011;800;48.824;9.346;2022-08-19T02:51:40;16.47;;;14.77;;
1613;SDS011;800;48.824;9.346;2022-08-19T02:54:07;15.70;;;14.13;;
1613;SDS011;800;48.824;9.346;2022-08-19T02:56:34;16.07;;;14.43;;
1613;SDS011;800;48.824;9.346;2022-08-19T02:59:01;15.80;;;14.40;;
1613;SDS011;800;48.824;9.346;2022-08-19T03:01:30;15.07;;;13.73;;
1613;SDS011;800;48.824;9.346;2022-08-19T03:03:57;15.07;;;13.67;;
1613;SDS011;800;48.824;9.346;2022-08-19T03:06:24;15.20;;;13.80;;
1613;SDS011;800;48.824;9.346;2022-08-19T03:08:50;17.03;;;15.37;;
1613;SDS011;800;48.824;9.346;2022-08-19T03:11:35;14.70;;;13.40;;
1613;SDS011;800;48.824;9.346;2022-08-19T03:14:01;15.03;;;13.73;;
1613;SDS011;800;48.824;9.346;2022-08-19T03:16:29;15.80;;;14.13;;
1613;SDS011;800;48.824;9.346;2022-08-19T03:18:57;15.50;;;14.00;;
1613;SDS011;800;48.824;9.346;2022-08-19T03:21:26;14.67;;;13.37;;
1613;SDS011;800;48.824;9.346;2022-08-19T03:23:54;15.67;;;14.23;;
1613;SDS011;800;48.824;9.346;2022-08-19T03:26:20;18.10;;;14.87;;
1613;SDS011;800;48.824;9.346;2022-08-19T03:28:46;15.27;;;13.83;;
1613;SDS011;800;48.824;9.346;2022-08-19T03:31:14;16.20;;;14.73;;
1613;SDS011;800;48.824;9.346;2022-08-19T03:33:42;16.50;;;14.33;;
1613;SDS011;800;48.824;9.346;2022-08-19T03:36:12;16.57;;;15.13;;
1613;SDS011;800;48.824;9.346;2022-08-19T03:38:44;16.07;;;14.67;;
1613;SDS011;800;48.824;9.346;2022-08-19T03:41:14;15.83;;;14.40;;
1613;SDS011;800;48.824;9.346;2022-08-19T03:43:43;18.30;;;14.43;;
1613;SDS011;800;48.824;9.346;2022-08-19T03:46:12;15.13;;;13.53;;
1613;SDS011;800;48.824;9.346;2022-08-19T03:48:41;15.33;;;13.83;;
1613;SDS011;800;48.824;9.346;2022-08-19T03:51:08;15.50;;;14.00;;
1613;SDS011;800;48.824;9.346;2022-08-19T03:53:45;17.73;;;16.07;;
1613;SDS011;800;48.824;9.346;2022-08-19T03:56:11;15.70;;;14.30;;
1613;SDS011;800;48.824;9.346;2022-08-19T03:58:38;17.63;;;15.80;;
1613;SDS011;800;48.824;9.346;2022-08-19T04:01:07;15.60;;;14.20;;
1613;SDS011;800;48.824;9.346;2022-08-19T04:03:34;15.87;;;14.33;;
1613;SDS011;800;48.824;9.346;2022-08-19T04:06:10;16.43;;;14.93;;
1613;SDS011;800;48.824;9.346;2022-08-19T04:08:45;17.33;;;14.80;;
1613;SDS011;800;48.824;9.346;2022-08-19T04:11:13;16.87;;;15.27;;
1613;SDS011;800;48.824;9.346;2022-08-19T04:13:41;15.50;;;13.90;;
1613;SDS011;800;48.824;9.346;2022-08-19T04:16:09;15.60;;;14.00;;
1613;SDS011;800;48.824;9.346;2022-08-19T04:18:35;16.80;;;15.23;;
1613;SDS011;800;48.824;9.346;2022-08-19T04:21:03;17.47;;;15.80;;
1613;SDS011;800;48.824;9.346;2022-08-19T04:23:30;16.07;;;14.50;;
1613;SDS011;800;48.824;9.346;2022-08-19T04:25:56;16.63;;;14.97;;
1613;SDS011;800;48.824;9.346;2022-08-19T04:28:22;16.60;;;14.87;;
1613;SDS011;800;48.824;9.346;2022-08-19T04:30:51;17.47;;;15.80;;
1613;SDS011;800;48.824;9.346;2022-08-19T04:33:19;19.80;;;17.67;;
1613;SDS011;800;48.824;9.346;2022-08-19T04:35:49;18.97;;;17.00;;
1613;SDS011;800;48.824;9.346;2022-08-19T04:38:18;19.83;;;17.80;;
1613;SDS011;800;48.824;9.346;2022-08-19T04:40:49;19.20;;;15.57;;
1613;SDS011;800;48.824;9.346;2022-08-19T04:43:34;18.73;;;16.83;;
1613;SDS011;800;48.824;9.346;2022-08-19T04:46:05;18.20;;;16.50;;
1613;SDS011;800;48.824;9.346;2022-08-19T04:48:37;18.17;;;14.97;;
1613;SDS011;800;48.824;9.346;2022-08-19T04:51:08;19.20;;;17.40;;
1613;SDS011;800;48.824;9.346;2022-08-19T04:53:36;18.90;;;17.23;;
1613;SDS011;800;48.824;9.346;2022-08-19T04:56:07;17.10;;;15.50;;
1613;SDS011;800;48.824;9.346;2022-08-19T04:58:35;18.97;;;17.07;;
1613;SDS011;800;48.824;9.346;2022-08-19T05:01:02;19.07;;;17.17;;
1613;SDS011;800;48.824;9.346;2022-08-19T05:03:29;20.73;;;18.93;;
1613;SDS011;800;48.824;9.346;2022-08-19T05:06:02;21.23;;;19.00;;
1613;SDS011;800;48.824;9.346;2022-08-19T05:08:32;20.60;;;18.63;;
1613;SDS011;800;48.824;9.346;2022-08-19T05:11:01;19.33;;;17.53;;
1613;SDS011;800;48.824;9.346;2022-08-19T05:13:32;21.87;;;19.67;;
1613;SDS011;800;48.824;9.346;2022-08-19T05:15:58;21.67;;;19.47;;
1613;SDS011;800;48.824;9.346;2022-08-19T05:18:24;21.73;;;19.53;;
1613;SDS011;800;48.824;9.346;2022-08-19T05:21:11;22.80;;;20.50;;
1613;SDS011;800;48.824;9.346;2022-08-19T05:23:57;20.93;;;18.90;;
1613;SDS011;800;48.824;9.346;2022-08-19T05:26:23;19.57;;;17.60;;
1613;SDS011;800;48.824;9.346;2022-08-19T05:28:51;21.07;;;19.03;;
1613;SDS011;800;48.824;9.346;2022-08-19T05:31:18;20.90;;;18.80;;
1613;SDS011;800;48.824;9.346;2022-08-19T05:33:44;21.13;;;19.00;;
1613;SDS011;800;48.824;9.346;2022-08-19T05:36:09;20.90;;;18.97;;
1613;SDS011;800;48.824;9.346;2022-08-19T05:38:35;21.63;;;19.43;;
1613;SDS011;800;48.824;9.346;2022-08-19T05:41:11;21.10;;;19.10;;
1613;SDS011;800;48.824;9.346;2022-08-19T05:43:38;22.23;;;20.33;;
1613;SDS011;800;48.824;9.346;2022-08-19T05:46:06;21.97;;;19.93;;
1613;SDS011;800;48.824;9.346;2022-08-19T05:48:33;22.67;;;20.60;;
1613;SDS011;800;48.824;9.346;2022-08-19T05:51:06;20.97;;;18.83;;
1613;SDS011;800;48.824;9.346;2022-08-19T05:53:33;21.07;;;18.97;;
1613;SDS011;800;48.824;9.346;2022-08-19T05:56:06;19.40;;;17.20;;
1613;SDS011;800;48.824;9.346;2022-08-19T05:58:34;20.27;;;18.20;;
1613;SDS011;800;48.824;9.346;2022-08-19T06:01:00;18.63;;;17.03;;
1613;SDS011;800;48.824;9.346;2022-08-19T06:03:30;23.57;;;18.73;;
1613;SDS011;800;48.824;9.346;2022-08-19T06:05:57;21.20;;;19.07;;
1613;SDS011;800;48.824;9.346;2022-08-19T06:08:24;21.90;;;19.60;;
1613;SDS011;800;48.824;9.346;2022-08-19T06:10:50;20.03;;;18.03;;
1613;SDS011;800;48.824;9.346;2022-08-19T06:13:16;19.33;;;17.47;;
1613;SDS011;800;48.824;9.346;2022-08-19T06:15:44;21.27;;;19.37;;
1613;SDS011;800;48.824;9.346;2022-08-19T06:18:11;20.60;;;18.53;;
1613;SDS011;800;48.824;9.346;2022-08-19T06:20:38;22.50;;;20.43;;
1613;SDS011;800;48.824;9.346;2022-08-19T06:23:03;21.83;;;19.60;;
1613;SDS011;800;48.824;9.346;2022-08-19T06:25:29;22.03;;;20.03;;
1613;SDS011;800;48.824;9.346;2022-08-19T06:27:55;20.13;;;18.23;;
1613;SDS011;800;48.824;9.346;2022-08-19T06:30:21;19.20;;;17.50;;
1613;SDS011;800;48.824;9.346;2022-08-19T06:32:46;18.60;;;16.70;;
1613;SDS011;800;48.824;9.346;2022-08-19T06:35:12;17.90;;;16.17;;
1613;SDS011;800;48.824;9.346;2022-08-19T06:37:39;19.50;;;17.67;;
1613;SDS011;800;48.824;9.346;2022-08-19T06:40:05;18.63;;;16.93;;
1613;SDS011;800;48.824;9.346;2022-08-19T06:42:33;18.07;;;16.27;;
1613;SDS011;800;48.824;9.346;2022-08-19T06:44:59;19.73;;;17.67;;
1613;SDS011;800;48.824;9.346;2022-08-19T06:47:28;18.87;;;16.97;;
1613;SDS011;800;48.824;9.346;2022-08-19T06:49:55;18.73;;;16.90;;
1613;SDS011;800;48.824;9.346;2022-08-19T06:52:25;19.60;;;17.70;;
1613;SDS011;800;48.824;9.346;2022-08-19T06:54:50;20.60;;;18.53;;
1613;SDS011;800;48.824;9.346;2022-08-19T06:57:16;19.97;;;18.07;;
1613;SDS011;800;48.824;9.346;2022-08-19T06:59:41;20.97;;;19.00;;
1613;SDS011;800;48.824;9.346;2022-08-19T07:02:07;20.87;;;19.07;;
1613;SDS011;800;48.824;9.346;2022-08-19T07:04:34;21.40;;;19.33;;
1613;SDS011;800;48.824;9.346;2022-08-19T07:07:02;21.03;;;19.03;;
1613;SDS011;800;48.824;9.346;2022-08-19T07:09:37;18.70;;;16.80;;
1613;SDS011;800;48.824;9.346;2022-08-19T07:12:06;23.00;;;18.97;;
1613;SDS011;800;48.824;9.346;2022-08-19T07:14:34;20.83;;;18.40;;
1613;SDS011;800;48.824;9.346;2022-08-19T07:17:02;20.03;;;18.10;;
1613;SDS011;800;48.824;9.346;2022-08-19T07:19:34;20.07;;;18.07;;
1613;SDS011;800;48.824;9.346;2022-08-19T07:22:02;19.03;;;17.23;;
1613;SDS011;800;48.824;9.346;2022-08-19T07:24:30;21.30;;;19.20;;
1613;SDS011;800;48.824;9.346;2022-08-19T07:26:57;19.27;;;17.50;;
1613;SDS011;800;48.824;9.346;2022-08-19T07:29:25;25.63;;;20.50;;
1613;SDS011;800;48.824;9.346;2022-08-19T07:31:52;20.87;;;18.50;;
1613;SDS011;800;48.824;9.346;2022-08-19T07:34:21;23.03;;;20.93;;
1613;SDS011;800;48.824;9.346;2022-08-19T07:36:48;22.30;;;20.20;;
1613;SDS011;800;48.824;9.346;2022-08-19T07:39:28;23.57;;;21.27;;
1613;SDS011;800;48.824;9.346;2022-08-19T07:41:56;23.47;;;21.20;;
1613;SDS011;800;48.824;9.346;2022-08-19T07:44:23;21.70;;;19.73;;
1613;SDS011;800;48.824;9.346;2022-08-19T07:46:51;21.67;;;19.60;;
1613;SDS011;800;48.824;9.346;2022-08-19T07:49:19;23.43;;;20.93;;
1613;SDS011;800;48.824;9.346;2022-08-19T07:54:41;22.73;;;19.33;;
1613;SDS011;800;48.824;9.346;2022-08-19T07:57:07;22.30;;;20.00;;
1613;SDS011;800;48.824;9.346;2022-08-19T07:59:33;21.00;;;19.10;;
1613;SDS011;800;48.824;9.346;2022-08-19T08:01:59;22.27;;;20.07;;
1613;SDS011;800;48.824;9.346;2022-08-19T08:04:25;22.07;;;19.97;;
1613;SDS011;800;48.824;9.346;2022-08-19T08:07:10;19.70;;;17.70;;
1613;SDS011;800;48.824;9.346;2022-08-19T08:09:54;21.17;;;18.97;;
1613;SDS011;800;48.824;9.346;2022-08-19T08:12:26;17.30;;;15.80;;
1613;SDS011;800;48.824;9.346;2022-08-19T08:14:56;18.53;;;16.83;;
1613;SDS011;800;48.824;9.346;2022-08-19T08:17:27;20.70;;;18.70;;
1613;SDS011;800;48.824;9.346;2022-08-19T08:19:55;20.57;;;18.50;;
1613;SDS011;800;48.824;9.346;2022-08-19T08:22:22;20.40;;;18.40;;
1613;SDS011;800;48.824;9.346;2022-08-19T08:25:08;20.67;;;18.57;;
1613;SDS011;800;48.824;9.346;2022-08-19T08:27:41;20.10;;;18.00;;
1613;SDS011;800;48.824;9.346;2022-08-19T08:30:18;20.80;;;18.73;;
1613;SDS011;800;48.824;9.346;2022-08-19T08:32:45;19.73;;;17.93;;
1613;SDS011;800;48.824;9.346;2022-08-19T08:35:13;20.63;;;18.33;;
1613;SDS011;800;48.824;9.346;2022-08-19T08:37:41;19.33;;;17.43;;
1613;SDS011;800;48.824;9.346;2022-08-19T08:40:30;21.47;;;19.33;;
1613;SDS011;800;48.824;9.346;2022-08-19T08:52:00;20.57;;;18.73;;
1613;SDS011;800;48.824;9.346;2022-08-19T08:54:30;20.33;;;18.33;;
1613;SDS011;800;48.824;9.346;2022-08-19T08:57:07;19.73;;;17.73;;
1613;SDS011;800;48.824;9.346;2022-08-19T08:59:42;21.07;;;18.97;;
1613;SDS011;800;48.824;9.346;2022-08-19T09:02:11;22.53;;;20.43;;
1613;SDS011;800;48.824;9.346;2022-08-19T09:04:37;21.73;;;19.67;;
1613;SDS011;800;48.824;9.346;2022-08-19T09:09:51;21.43;;;18.83;;
1613;SDS011;800;48.824;9.346;2022-08-19T09:12:33;22.80;;;20.60;;
1613;SDS011;800;48.824;9.346;2022-08-19T09:15:07;21.20;;;19.10;;
1613;SDS011;800;48.824;9.346;2022-08-19T09:17:36;23.37;;;21.07;;
1613;SDS011;800;48.824;9.346;2022-08-19T09:22:38;21.70;;;19.60;;
1613;SDS011;800;48.824;9.346;2022-08-19T09:25:07;22.10;;;19.37;;
1613;SDS011;800;48.824;9.346;2022-08-19T09:27:35;22.03;;;19.80;;
1613;SDS011;800;48.824;9.346;2022-08-19T09:30:03;21.80;;;19.70;;
1613;SDS011;800;48.824;9.346;2022-08-19T09:32:29;23.00;;;20.87;;
1613;SDS011;800;48.824;9.346;2022-08-19T09:34:55;20.77;;;18.77;;
1613;SDS011;800;48.824;9.346;2022-08-19T09:37:23;20.47;;;18.40;;
1613;SDS011;800;48.824;9.346;2022-08-19T09:39:49;22.43;;;19.07;;
1613;SDS011;800;48.824;9.346;2022-08-19T09:42:16;23.43;;;21.03;;
1613;SDS011;800;48.824;9.346;2022-08-19T09:44:42;23.20;;;20.97;;
1613;SDS011;800;48.824;9.346;2022-08-19T09:47:09;22.33;;;20.13;;
1613;SDS011;800;48.824;9.346;2022-08-19T09:49:36;22.40;;;19.13;;
1613;SDS011;800;48.824;9.346;2022-08-19T09:52:04;21.40;;;19.40;;
1613;SDS011;800;48.824;9.346;2022-08-19T09:54:32;24.10;;;20.77;;
1613;SDS011;800;48.824;9.346;2022-08-19T09:56:59;23.07;;;20.73;;
1613;SDS011;800;48.824;9.346;2022-08-19T09:59:28;23.27;;;20.97;;
1613;SDS011;800;48.824;9.346;2022-08-19T10:01:54;22.97;;;20.57;;
1613;SDS011;800;48.824;9.346;2022-08-19T10:04:20;22.00;;;19.80;;
1613;SDS011;800;48.824;9.346;2022-08-19T10:07:05;24.10;;;21.60;;
1613;SDS011;800;48.824;9.346;2022-08-19T10:09:31;23.77;;;21.37;;
1613;SDS011;800;48.824;9.346;2022-08-19T10:11:56;22.80;;;20.60;;
1613;SDS011;800;48.824;9.346;2022-08-19T10:14:25;24.97;;;21.67;;
1613;SDS011;800;48.824;9.346;2022-08-19T10:16:50;23.13;;;20.83;;
1613;SDS011;800;48.824;9.346;2022-08-19T10:19:16;21.57;;;19.47;;
1613;SDS011;800;48.824;9.346;2022-08-19T10:21:41;22.90;;;20.57;;
1613;SDS011;800;48.824;9.346;2022-08-19T10:24:07;23.50;;;21.40;;
1613;SDS011;800;48.824;9.346;2022-08-19T10:26:34;22.20;;;20.10;;
1613;SDS011;800;48.824;9.346;2022-08-19T10:29:02;24.07;;;21.57;;
1613;SDS011;800;48.824;9.346;2022-08-19T10:31:30;23.43;;;20.80;;
1613;SDS011;800;48.824;9.346;2022-08-19T10:33:57;24.37;;;21.87;;
1613;SDS011;800;48.824;9.346;2022-08-19T10:36:23;23.40;;;21.07;;
1613;SDS011;800;48.824;9.346;2022-08-19T10:39:01;23.80;;;21.40;;
1613;SDS011;800;48.824;9.346;2022-08-19T10:41:31;21.47;;;19.47;;
1613;SDS011;800;48.824;9.346;2022-08-19T10:43:59;23.50;;;21.30;;
1613;SDS011;800;48.824;9.346;2022-08-19T10:46:27;18.90;;;17.07;;
1613;SDS011;800;48.824;9.346;2022-08-19T10:48:57;17.70;;;15.50;;
1613;SDS011;800;48.824;9.346;2022-08-19T10:51:27;23.70;;;21.20;;
1613;SDS011;800;48.824;9.346;2022-08-19T10:54:12;20.10;;;18.10;;
1613;SDS011;800;48.824;9.346;2022-08-19T10:56:37;24.87;;;22.37;;
1613;SDS011;800;48.824;9.346;2022-08-19T10:59:20;21.53;;;18.57;;
1613;SDS011;800;48.824;9.346;2022-08-19T11:01:48;19.53;;;17.63;;
1613;SDS011;800;48.824;9.346;2022-08-19T11:04:15;21.63;;;19.60;;
1613;SDS011;800;48.824;9.346;2022-08-19T11:06:43;21.93;;;19.83;;
1613;SDS011;800;48.824;9.346;2022-08-19T11:09:12;24.17;;;21.70;;
1613;SDS011;800;48.824;9.346;2022-08-19T11:11:40;18.90;;;17.10;;
1613;SDS011;800;48.824;9.346;2022-08-19T11:14:07;17.60;;;15.90;;
1613;SDS011;800;48.824;9.346;2022-08-19T11:16:37;19.87;;;17.97;;
1613;SDS011;800;48.824;9.346;2022-08-19T11:19:04;21.10;;;18.93;;
1613;SDS011;800;48.824;9.346;2022-08-19T11:21:33;19.20;;;17.03;;
1613;SDS011;800;48.824;9.346;2022-08-19T11:24:01;18.53;;;16.77;;
1613;SDS011;800;48.824;9.346;2022-08-19T11:26:30;17.60;;;15.70;;
1613;SDS011;800;48.824;9.346;2022-08-19T11:28:57;20.87;;;18.77;;
1613;SDS011;800;48.824;9.346;2022-08-19T11:31:24;23.43;;;21.27;;
1613;SDS011;800;48.824;9.346;2022-08-19T11:33:53;17.87;;;16.27;;
1613;SDS011;800;48.824;9.346;2022-08-19T11:36:21;17.50;;;15.80;;
1613;SDS011;800;48.824;9.346;2022-08-19T11:38:47;17.73;;;16.00;;
1613;SDS011;800;48.824;9.346;2022-08-19T11:41:15;17.43;;;15.73;;
1613;SDS011;800;48.824;9.346;2022-08-19T11:43:42;16.33;;;14.90;;
1613;SDS011;800;48.824;9.346;2022-08-19T11:46:08;20.00;;;18.03;;
1613;SDS011;800;48.824;9.346;2022-08-19T11:48:36;20.20;;;18.30;;
1613;SDS011;800;48.824;9.346;2022-08-19T11:51:04;15.80;;;14.50;;
1613;SDS011;800;48.824;9.346;2022-08-19T11:53:34;17.93;;;14.67;;
1613;SDS011;800;48.824;9.346;2022-08-19T11:56:01;20.20;;;18.10;;
1613;SDS011;800;48.824;9.346;2022-08-19T11:58:27;21.57;;;19.40;;
1613;SDS011;800;48.824;9.346;2022-08-19T12:00:54;17.43;;;15.93;;
1613;SDS011;800;48.824;9.346;2022-08-19T12:03:20;16.47;;;14.97;;
1613;SDS011;800;48.824;9.346;2022-08-19T12:05:46;15.53;;;14.13;;
1613;SDS011;800;48.824;9.346;2022-08-19T12:08:12;15.83;;;14.40;;
1613;SDS011;800;48.824;9.346;2022-08-19T12:10:39;17.73;;;15.93;;
1613;SDS011;800;48.824;9.346;2022-08-19T12:13:06;17.67;;;15.80;;
1613;SDS011;800;48.824;9.346;2022-08-19T12:15:39;21.57;;;19.47;;
1613;SDS011;800;48.824;9.346;2022-08-19T12:18:08;21.23;;;18.33;;
1613;SDS011;800;48.824;9.346;2022-08-19T12:20:35;16.50;;;15.10;;
1613;SDS011;800;48.824;9.346;2022-08-19T12:23:02;21.03;;;19.03;;
1613;SDS011;800;48.824;9.346;2022-08-19T12:25:29;15.83;;;14.17;;
1613;SDS011;800;48.824;9.346;2022-08-19T12:27:55;16.17;;;14.77;;
1613;SDS011;800;48.824;9.346;2022-08-19T12:30:21;19.80;;;17.80;;
1613;SDS011;800;48.824;9.346;2022-08-19T12:32:47;19.30;;;17.57;;
1613;SDS011;800;48.824;9.346;2022-08-19T12:35:13;19.90;;;17.33;;
1613;SDS011;800;48.824;9.346;2022-08-19T12:37:39;16.40;;;14.90;;
1613;SDS011;800;48.824;9.346;2022-08-19T12:40:07;16.60;;;15.13;;
1613;SDS011;800;48.824;9.346;2022-08-19T12:42:33;18.10;;;16.30;;
1613;SDS011;800;48.824;9.346;2022-08-19T12:44:59;21.10;;;19.10;;
1613;SDS011;800;48.824;9.346;2022-08-19T12:47:25;20.57;;;18.47;;
1613;SDS011;800;48.824;9.346;2022-08-19T12:49:52;17.17;;;15.57;;
1613;SDS011;800;48.824;9.346;2022-08-19T12:52:17;18.20;;;16.50;;
1613;SDS011;800;48.824;9.346;2022-08-19T12:54:46;19.90;;;17.80;;
1613;SDS011;800;48.824;9.346;2022-08-19T12:57:12;18.10;;;16.30;;
1613;SDS011;800;48.824;9.346;2022-08-19T12:59:37;18.47;;;16.70;;
1613;SDS011;800;48.824;9.346;2022-08-19T13:02:04;21.47;;;19.27;;
1613;SDS011;800;48.824;9.346;2022-08-19T13:04:32;19.80;;;17.83;;
1613;SDS011;800;48.824;9.346;2022-08-19T13:07:01;17.77;;;15.97;;
1613;SDS011;800;48.824;9.346;2022-08-19T13:09:27;22.53;;;20.20;;
1613;SDS011;800;48.824;9.346;2022-08-19T13:11:53;20.53;;;18.53;;
1613;SDS011;800;48.824;9.346;2022-08-19T13:14:19;17.80;;;16.13;;
1613;SDS011;800;48.824;9.346;2022-08-19T13:16:45;19.40;;;17.67;;
1613;SDS011;800;48.824;9.346;2022-08-19T13:19:11;18.60;;;16.70;;
1613;SDS011;800;48.824;9.346;2022-08-19T13:21:38;20.33;;;18.10;;
1613;SDS011;800;48.824;9.346;2022-08-19T13:24:03;19.83;;;17.77;;
1613;SDS011;800;48.824;9.346;2022-08-19T13:26:29;20.90;;;18.90;;
1613;SDS011;800;48.824;9.346;2022-08-19T13:28:55;18.60;;;16.80;;
1613;SDS011;800;48.824;9.346;2022-08-19T13:31:40;27.30;;;22.40;;
1613;SDS011;800;48.824;9.346;2022-08-19T13:34:30;20.80;;;18.73;;
1613;SDS011;800;48.824;9.346;2022-08-19T13:37:00;26.50;;;23.90;;
1613;SDS011;800;48.824;9.346;2022-08-19T13:39:28;21.17;;;19.17;;
1613;SDS011;800;48.824;9.346;2022-08-19T13:41:54;20.00;;;18.20;;
1613;SDS011;800;48.824;9.346;2022-08-19T13:44:20;19.90;;;18.10;;
1613;SDS011;800;48.824;9.346;2022-08-19T13:46:46;24.33;;;21.90;;
1613;SDS011;800;48.824;9.346;2022-08-19T13:49:15;20.30;;;18.20;;
1613;SDS011;800;48.824;9.346;2022-08-19T13:51:44;21.93;;;19.83;;
1613;SDS011;800;48.824;9.346;2022-08-19T13:54:10;19.73;;;17.83;;
1613;SDS011;800;48.824;9.346;2022-08-19T13:56:41;18.27;;;16.53;;
1613;SDS011;800;48.824;9.346;2022-08-19T13:59:07;19.63;;;17.87;;
1613;SDS011;800;48.824;9.346;2022-08-19T14:01:33;23.00;;;20.80;;
1613;SDS011;800;48.824;9.346;2022-08-19T14:03:59;17.90;;;16.20;;
1613;SDS011;800;48.824;9.346;2022-08-19T14:06:26;22.13;;;18.10;;
1613;SDS011;800;48.824;9.346;2022-08-19T14:08:51;23.97;;;21.73;;
1613;SDS011;800;48.824;9.346;2022-08-19T14:11:17;21.40;;;19.50;;
1613;SDS011;800;48.824;9.346;2022-08-19T14:13:43;17.93;;;16.20;;
1613;SDS011;800;48.824;9.346;2022-08-19T14:16:10;18.87;;;17.07;;
1613;SDS011;800;48.824;9.346;2022-08-19T14:18:37;16.57;;;15.10;;
1613;SDS011;800;48.824;9.346;2022-08-19T14:21:04;18.20;;;16.60;;
1613;SDS011;800;48.824;9.346;2022-08-19T14:23:30;18.70;;;16.93;;
1613;SDS011;800;48.824;9.346;2022-08-19T14:26:03;24.47;;;22.00;;
1613;SDS011;800;48.824;9.346;2022-08-19T14:28:30;25.17;;;22.77;;
1613;SDS011;800;48.824;9.346;2022-08-19T14:30:55;25.67;;;23.37;;
1613;SDS011;800;48.824;9.346;2022-08-19T14:33:21;21.10;;;19.10;;
1613;SDS011;800;48.824;9.346;2022-08-19T14:35:47;25.73;;;22.73;;
1613;SDS011;800;48.824;9.346;2022-08-19T14:38:17;24.57;;;22.20;;
1613;SDS011;800;48.824;9.346;2022-08-19T14:40:43;25.47;;;22.97;;
1613;SDS011;800;48.824;9.346;2022-08-19T14:43:10;20.13;;;16.37;;
1613;SDS011;800;48.824;9.346;2022-08-19T14:45:37;18.50;;;16.80;;
1613;SDS011;800;48.824;9.346;2022-08-19T14:48:05;21.70;;;19.47;;
1613;SDS011;800;48.824;9.346;2022-08-19T14:50:32;15.23;;;13.63;;
1613;SDS011;800;48.824;9.346;2022-08-19T14:52:59;24.07;;;21.67;;
1613;SDS011;800;48.824;9.346;2022-08-19T14:55:27;22.60;;;20.30;;
1613;SDS011;800;48.824;9.346;2022-08-19T14:57:52;23.90;;;21.60;;
1613;SDS011;800;48.824;9.346;2022-08-19T15:00:18;22.60;;;20.57;;
1613;SDS011;800;48.824;9.346;2022-08-19T15:02:44;26.27;;;23.87;;
1613;SDS011;800;48.824;9.346;2022-08-19T15:05:09;21.93;;;19.83;;
1613;SDS011;800;48.824;9.346;2022-08-19T15:07:35;24.43;;;22.03;;
1613;SDS011;800;48.824;9.346;2022-08-19T15:10:02;19.63;;;17.83;;
1613;SDS011;800;48.824;9.346;2022-08-19T15:12:28;16.07;;;14.60;;
1613;SDS011;800;48.824;9.346;2022-08-19T15:14:55;21.63;;;19.53;;
1613;SDS011;800;48.824;9.346;2022-08-19T15:17:21;24.00;;;21.60;;
1613;SDS011;800;48.824;9.346;2022-08-19T15:19:46;18.87;;;17.20;;
1613;SDS011;800;48.824;9.346;2022-08-19T15:22:12;20.90;;;18.73;;
1613;SDS011;800;48.824;9.346;2022-08-19T15:24:38;18.37;;;16.77;;